createdAt,value
2022-08-05T00:01:35.958Z,21.30
2022-08-05T00:04:15.550Z,21.24
2022-08-05T00:06:42.771Z,21.19
2022-08-05T00:09:13.034Z,21.16
2022-08-05T00:11:48.426Z,21.16
2022-08-05T00:14:17.139Z,21.13
2022-08-05T00:16:53.627Z,21.09
2022-08-05T00:19:22.449Z,21.09
2022-08-05T00:21:49.381Z,21.07
2022-08-05T00:24:18.881Z,21.02
2022-08-05T00:26:52.199Z,21.04
2022-08-05T00:29:25.715Z,20.88
2022-08-05T00:32:12.324Z,21.00
2022-08-05T00:34:57.053Z,20.88
2022-08-05T00:37:51.375Z,20.93
2022-08-05T00:40:14.675Z,20.93
2022-08-05T00:42:48.309Z,20.92
2022-08-05T00:45:16.382Z,20.89
2022-08-05T00:48:05.010Z,20.82
2022-08-05T00:50:32.206Z,20.81
2022-08-05T00:52:58.542Z,20.89
2022-08-05T00:55:42.142Z,20.90
2022-08-05T00:58:11.407Z,20.82
2022-08-05T01:00:39.542Z,20.86
2022-08-05T01:03:07.796Z,20.87
2022-08-05T01:05:34.928Z,20.85
2022-08-05T01:08:30.291Z,20.74
2022-08-05T01:10:52.908Z,20.80
2022-08-05T01:13:58.997Z,20.71
2022-08-05T01:16:54.386Z,20.67
2022-08-05T01:19:36.746Z,20.66
2022-08-05T01:22:24.285Z,20.62
2022-08-05T01:25:13.610Z,20.63
2022-08-05T01:27:55.288Z,20.63
2022-08-05T01:30:34.692Z,20.61
2022-08-05T01:33:06.220Z,20.50
2022-08-05T01:35:50.863Z,20.55
2022-08-05T01:38:26.840Z,20.40
2022-08-05T01:40:58.513Z,20.48
2022-08-05T01:43:27.740Z,20.42
2022-08-05T01:45:56.442Z,20.36
2022-08-05T01:48:26.306Z,20.32
2022-08-05T01:50:55.402Z,20.31
2022-08-05T01:53:54.630Z,20.26
2022-08-05T01:56:13.729Z,20.15
2022-08-05T01:59:03.427Z,20.08
2022-08-05T02:01:32.752Z,20.02
2022-08-05T02:04:09.008Z,19.99
2022-08-05T02:06:39.013Z,19.95
2022-08-05T02:09:06.455Z,19.85
2022-08-05T02:11:42.508Z,19.76
2022-08-05T02:14:20.895Z,19.72
2022-08-05T02:16:53.102Z,19.76
2022-08-05T02:19:28.847Z,19.72
2022-08-05T02:22:25.550Z,19.67
2022-08-05T02:25:00.199Z,19.68
2022-08-05T02:27:30.255Z,19.56
2022-08-05T02:30:16.505Z,19.57
2022-08-05T02:32:48.041Z,19.55
2022-08-05T02:35:22.148Z,19.52
2022-08-05T02:37:56.574Z,19.44
2022-08-05T02:40:26.837Z,19.48
2022-08-05T02:42:55.514Z,19.48
2022-08-05T02:45:25.431Z,19.21
2022-08-05T02:48:11.688Z,19.22
2022-08-05T02:50:43.840Z,19.18
2022-08-05T02:53:19.150Z,19.13
2022-08-05T02:55:59.542Z,18.96
2022-08-05T02:58:27.330Z,18.83
2022-08-05T03:00:56.469Z,18.73
2022-08-05T03:03:23.837Z,18.60
2022-08-05T03:06:55.284Z,18.35
2022-08-05T03:08:42.710Z,18.08
2022-08-05T03:11:56.548Z,17.97
2022-08-05T03:14:04.769Z,17.90
2022-08-05T03:16:35.803Z,17.84
2022-08-05T03:19:06.513Z,17.82
2022-08-05T03:21:41.710Z,17.80
2022-08-05T03:24:16.886Z,18.04
2022-08-05T03:26:43.409Z,18.12
2022-08-05T03:29:17.215Z,18.20
2022-08-05T03:31:56.889Z,18.26
2022-08-05T03:34:27.961Z,18.33
2022-08-05T03:36:55.490Z,18.44
2022-08-05T03:39:27.040Z,18.39
2022-08-05T03:41:56.363Z,18.46
2022-08-05T03:44:23.468Z,18.42
2022-08-05T03:46:50.144Z,18.33
2022-08-05T03:49:16.896Z,18.34
2022-08-05T03:52:36.907Z,18.34
2022-08-05T03:56:00.824Z,18.34
2022-08-05T03:57:46.773Z,18.47
2022-08-05T04:00:16.304Z,18.50
2022-08-05T04:02:58.204Z,18.55
2022-08-05T04:05:33.689Z,18.63
2022-08-05T04:08:02.868Z,18.42
2022-08-05T04:10:37.171Z,18.44
2022-08-05T04:13:06.220Z,18.54
2022-08-05T04:15:36.258Z,18.50
2022-08-05T04:18:06.785Z,18.54
2022-08-05T04:20:34.512Z,18.55
2022-08-05T04:23:01.286Z,18.49
2022-08-05T04:25:38.707Z,18.57
2022-08-05T04:28:14.326Z,18.68
2022-08-05T04:30:41.622Z,18.75
2022-08-05T04:33:09.529Z,18.77
2022-08-05T04:36:16.343Z,18.77
2022-08-05T04:38:22.500Z,18.74
2022-08-05T04:41:06.731Z,18.76
2022-08-05T04:43:33.908Z,18.79
2022-08-05T04:46:00.442Z,18.82
2022-08-05T04:48:28.369Z,18.81
2022-08-05T04:51:02.614Z,18.76
2022-08-05T04:53:38.769Z,18.74
2022-08-05T04:56:33.467Z,18.80
2022-08-05T04:58:53.857Z,18.70
2022-08-05T05:02:05.491Z,18.69
2022-08-05T05:04:06.689Z,18.66
2022-08-05T05:06:39.381Z,18.68
2022-08-05T05:09:14.145Z,18.68
2022-08-05T05:11:53.925Z,18.62
2022-08-05T05:14:31.653Z,18.54
2022-08-05T05:16:59.778Z,18.52
2022-08-05T05:19:27.424Z,18.50
2022-08-05T05:22:03.577Z,18.48
2022-08-05T05:24:58.946Z,18.52
2022-08-05T05:27:44.254Z,18.54
2022-08-05T05:30:29.173Z,18.54
2022-08-05T05:33:00.815Z,18.65
2022-08-05T05:35:29.196Z,18.67
2022-08-05T05:38:09.260Z,18.71
2022-08-05T05:40:42.483Z,18.75
2022-08-05T05:43:14.396Z,18.75
2022-08-05T05:45:48.098Z,18.75
2022-08-05T05:48:15.983Z,18.79
2022-08-05T05:50:44.256Z,18.88
2022-08-05T05:53:21.075Z,18.91
2022-08-05T05:55:51.839Z,18.87
2022-08-05T05:58:32.105Z,18.89
2022-08-05T06:01:04.881Z,18.91
2022-08-05T06:04:00.537Z,19.01
2022-08-05T06:06:31.081Z,19.11
2022-08-05T06:09:00.349Z,19.12
2022-08-05T06:11:28.796Z,19.06
2022-08-05T06:13:56.092Z,19.13
2022-08-05T06:16:28.286Z,19.18
2022-08-05T06:19:00.239Z,19.24
2022-08-05T06:21:37.620Z,19.33
2022-08-05T06:24:07.769Z,19.30
2022-08-05T06:26:38.184Z,19.33
2022-08-05T06:29:06.954Z,19.38
2022-08-05T06:31:51.399Z,19.37
2022-08-05T06:34:19.916Z,19.33
2022-08-05T06:36:57.414Z,19.22
2022-08-05T06:39:27.191Z,19.20
2022-08-05T06:41:58.909Z,19.17
2022-08-05T06:44:25.601Z,19.19
2022-08-05T06:46:52.512Z,19.23
2022-08-05T06:49:21.381Z,19.14
2022-08-05T06:52:07.369Z,19.12
2022-08-05T06:54:33.785Z,19.12
2022-08-05T06:57:58.043Z,19.11
2022-08-05T06:59:57.980Z,19.10
2022-08-05T07:02:24.675Z,19.12
2022-08-05T07:04:51.246Z,19.00
2022-08-05T07:07:24.076Z,19.07
2022-08-05T07:10:03.376Z,19.02
2022-08-05T07:12:49.175Z,19.03
2022-08-05T07:16:00.521Z,19.07
2022-08-05T07:18:29.188Z,18.88
2022-08-05T07:20:56.933Z,18.92
2022-08-05T07:23:26.100Z,18.99
2022-08-05T07:25:54.641Z,19.03
2022-08-05T07:28:22.917Z,19.11
2022-08-05T07:30:50.392Z,19.01
2022-08-05T07:33:37.199Z,19.07
2022-08-05T07:36:20.152Z,19.12
2022-08-05T07:38:47.385Z,19.25
2022-08-05T07:42:08.494Z,19.20
2022-08-05T07:44:18.536Z,19.08
2022-08-05T07:46:48.489Z,19.00
2022-08-05T07:49:16.443Z,18.89
2022-08-05T07:51:53.050Z,18.94
2022-08-05T07:54:21.927Z,18.99
2022-08-05T07:57:14.657Z,18.96
2022-08-05T07:59:40.971Z,18.95
2022-08-05T08:02:16.202Z,18.89
2022-08-05T08:04:45.007Z,18.86
2022-08-05T08:07:11.998Z,18.75
2022-08-05T08:09:38.387Z,18.73
2022-08-05T08:12:11.486Z,18.70
2022-08-05T08:14:47.023Z,18.59
2022-08-05T08:17:15.857Z,18.49
2022-08-05T08:20:43.221Z,18.54
2022-08-05T08:22:30.871Z,18.48
2022-08-05T08:25:03.138Z,18.43
2022-08-05T08:27:39.906Z,18.47
2022-08-05T08:30:29.727Z,18.51
2022-08-05T08:32:58.657Z,18.47
2022-08-05T08:35:34.767Z,18.31
2022-08-05T08:38:01.796Z,18.25
2022-08-05T08:40:29.913Z,18.19
2022-08-05T08:42:57.668Z,18.17
2022-08-05T08:45:44.786Z,18.05
2022-08-05T08:48:41.389Z,18.12
2022-08-05T08:51:54.482Z,18.13
2022-08-05T08:53:50.623Z,18.09
2022-08-05T08:56:20.923Z,18.02
2022-08-05T08:58:49.635Z,17.91
2022-08-05T09:01:19.055Z,17.90
2022-08-05T09:03:55.053Z,17.80
2022-08-05T09:06:24.187Z,17.73
2022-08-05T09:08:55.479Z,17.77
2022-08-05T09:11:51.301Z,17.82
2022-08-05T09:14:54.247Z,17.79
2022-08-05T09:16:55.183Z,17.81
2022-08-05T09:19:27.977Z,17.86
2022-08-05T09:22:22.686Z,17.75
2022-08-05T09:25:13.787Z,17.74
2022-08-05T09:28:03.847Z,17.76
2022-08-05T09:30:34.994Z,17.83
2022-08-05T09:33:02.333Z,17.81
2022-08-05T09:35:29.472Z,17.89
2022-08-05T09:38:17.915Z,17.90
2022-08-05T09:40:51.939Z,17.88
2022-08-05T09:43:40.681Z,18.00
2022-08-05T09:46:32.526Z,17.97
2022-08-05T09:49:07.105Z,17.90
2022-08-05T09:51:39.928Z,17.94
2022-08-05T09:54:08.593Z,17.80
2022-08-05T09:56:37.912Z,17.72
2022-08-05T09:59:10.156Z,17.63
2022-08-05T10:01:45.742Z,17.55
2022-08-05T10:04:16.027Z,17.43
2022-08-05T10:06:59.668Z,17.41
2022-08-05T10:09:29.814Z,17.33
2022-08-05T10:12:18.683Z,17.22
2022-08-05T10:15:16.416Z,17.26
2022-08-05T10:17:54.484Z,17.21
2022-08-05T10:20:23.826Z,17.17
2022-08-05T10:22:51.845Z,17.14
2022-08-05T10:25:19.596Z,17.15
2022-08-05T10:28:13.528Z,17.12
2022-08-05T10:31:19.838Z,17.08
2022-08-05T10:33:25.541Z,17.30
2022-08-05T10:35:59.914Z,17.36
2022-08-05T10:38:29.294Z,17.46
2022-08-05T10:41:09.596Z,17.55
2022-08-05T10:43:57.338Z,17.65
2022-08-05T10:46:43.930Z,17.87
2022-08-05T10:49:16.628Z,18.12
2022-08-05T10:51:57.280Z,18.21
2022-08-05T10:54:55.811Z,18.34
2022-08-05T10:57:29.468Z,18.29
2022-08-05T11:00:17.915Z,18.32
2022-08-05T11:03:24.646Z,18.42
2022-08-05T11:06:15.327Z,18.45
2022-08-05T11:09:32.326Z,18.77
2022-08-05T11:12:26.631Z,18.88
2022-08-05T11:15:20.107Z,19.27
2022-08-05T11:18:07.474Z,19.43
2022-08-05T11:20:45.219Z,19.56
2022-08-05T11:24:04.589Z,19.52
2022-08-05T11:26:37.466Z,19.79
2022-08-05T11:29:13.832Z,20.03
2022-08-05T11:31:56.561Z,19.98
2022-08-05T11:34:37.638Z,19.94
2022-08-05T11:38:14.334Z,19.80
2022-08-05T11:40:00.808Z,20.11
2022-08-05T11:42:32.705Z,21.19
2022-08-05T11:45:23.260Z,22.43
2022-08-05T11:47:55.128Z,22.31
2022-08-05T11:50:22.306Z,21.93
2022-08-05T11:52:51.104Z,21.62
2022-08-05T11:55:19.643Z,21.19
2022-08-05T11:58:09.203Z,21.61
2022-08-05T12:00:37.739Z,22.67
2022-08-05T12:03:29.555Z,23.17
2022-08-05T12:06:00.389Z,23.38
2022-08-05T12:08:27.515Z,23.54
2022-08-05T12:10:56.661Z,23.46
2022-08-05T12:13:48.133Z,23.83
2022-08-05T12:16:19.027Z,24.20
2022-08-05T12:18:49.543Z,24.23
2022-08-05T12:21:23.800Z,24.06
2022-08-05T12:24:00.006Z,24.07
2022-08-05T12:26:32.637Z,24.14
2022-08-05T12:28:59.888Z,23.56
2022-08-05T12:31:33.710Z,23.67
2022-08-05T12:34:20.488Z,23.76
2022-08-05T12:36:49.680Z,23.49
2022-08-05T12:39:17.679Z,22.82
2022-08-05T12:41:45.209Z,22.65
2022-08-05T12:44:28.553Z,22.62
2022-08-05T12:47:01.846Z,22.54
2022-08-05T12:50:03.141Z,22.60
2022-08-05T12:52:33.967Z,23.10
2022-08-05T12:55:18.148Z,23.72
2022-08-05T12:58:49.053Z,23.83
2022-08-05T13:02:01.961Z,23.79
2022-08-05T13:03:32.374Z,23.72
2022-08-05T13:06:00.919Z,23.01
2022-08-05T13:08:30.254Z,22.78
2022-08-05T13:11:04.342Z,23.03
2022-08-05T13:14:06.783Z,23.33
2022-08-05T13:16:20.157Z,23.27
2022-08-05T13:18:55.287Z,23.39
2022-08-05T13:21:28.280Z,23.14
2022-08-05T13:24:05.189Z,22.81
2022-08-05T13:26:31.612Z,22.84
2022-08-05T13:28:59.045Z,22.86
2022-08-05T13:31:33.835Z,22.64
2022-08-05T13:34:25.629Z,22.46
2022-08-05T13:36:53.877Z,22.51
2022-08-05T13:40:13.892Z,22.37
2022-08-05T13:42:07.225Z,22.25
2022-08-05T13:44:34.762Z,22.35
2022-08-05T13:47:08.529Z,22.70
2022-08-05T13:49:35.923Z,23.24
2022-08-05T13:52:12.584Z,23.38
2022-08-05T13:54:39.947Z,23.31
2022-08-05T13:57:07.393Z,23.24
2022-08-05T13:59:37.904Z,23.24
2022-08-05T14:02:26.645Z,23.15
2022-08-05T14:05:19.381Z,23.01
2022-08-05T14:08:03.309Z,22.96
2022-08-05T14:10:34.714Z,22.85
2022-08-05T14:13:01.297Z,22.93
2022-08-05T14:16:06.971Z,22.69
2022-08-05T14:18:18.558Z,22.42
2022-08-05T14:20:55.080Z,22.12
2022-08-05T14:23:25.169Z,21.81
2022-08-05T14:25:58.795Z,21.44
2022-08-05T14:28:29.817Z,21.17
2022-08-05T14:31:00.586Z,21.12
2022-08-05T14:33:27.740Z,21.03
2022-08-05T14:36:14.066Z,21.28
2022-08-05T14:38:40.408Z,21.42
2022-08-05T14:41:07.939Z,21.60
2022-08-05T14:43:57.592Z,21.74
2022-08-05T14:46:28.090Z,21.87
2022-08-05T14:48:57.729Z,22.01
2022-08-05T14:51:25.257Z,22.02
2022-08-05T14:54:27.172Z,22.27
2022-08-05T14:56:44.344Z,22.50
2022-08-05T14:59:13.668Z,22.44
2022-08-05T15:01:48.430Z,22.17
2022-08-05T15:04:15.817Z,22.44
2022-08-05T15:06:42.213Z,22.69
2022-08-05T15:09:15.984Z,22.84
2022-08-05T15:12:04.016Z,22.77
2022-08-05T15:14:35.617Z,22.65
2022-08-05T15:17:44.390Z,22.56
2022-08-05T15:19:56.055Z,22.47
2022-08-05T15:22:26.882Z,22.36
2022-08-05T15:24:54.850Z,22.04
2022-08-05T15:27:21.213Z,22.21
2022-08-05T15:29:47.546Z,22.38
2022-08-05T15:32:21.521Z,22.56
2022-08-05T15:34:54.006Z,22.61
2022-08-05T15:38:32.588Z,22.54
2022-08-05T15:41:04.036Z,22.34
2022-08-05T15:43:00.449Z,22.22
2022-08-05T15:45:38.136Z,22.20
2022-08-05T15:48:05.585Z,22.04
2022-08-05T15:50:33.261Z,21.85
2022-08-05T15:53:04.184Z,21.85
2022-08-05T15:56:01.389Z,21.83
2022-08-05T15:58:18.881Z,22.13
2022-08-05T16:01:04.146Z,22.31
2022-08-05T16:03:33.831Z,22.20
2022-08-05T16:06:00.654Z,22.22
2022-08-05T16:08:30.696Z,22.35
2022-08-05T16:10:58.168Z,22.37
2022-08-05T16:13:34.061Z,22.27
2022-08-05T16:16:01.045Z,22.12
2022-08-05T16:18:28.962Z,21.91
2022-08-05T16:20:55.611Z,21.76
2022-08-05T16:23:22.051Z,21.61
2022-08-05T16:25:49.759Z,21.48
2022-08-05T16:28:22.251Z,21.43
2022-08-05T16:30:52.018Z,21.38
2022-08-05T16:33:19.232Z,21.42
2022-08-05T16:35:49.923Z,21.46
2022-08-05T16:38:25.631Z,21.42
2022-08-05T16:41:00.088Z,21.46
2022-08-05T16:43:31.750Z,21.61
2022-08-05T16:46:07.662Z,21.62
2022-08-05T16:48:39.528Z,21.62
2022-08-05T16:51:09.904Z,21.62
2022-08-05T16:54:05.089Z,21.57
2022-08-05T16:56:25.865Z,21.51
2022-08-05T16:58:52.273Z,21.38
2022-08-05T17:01:19.131Z,21.39
2022-08-05T17:03:46.046Z,21.29
2022-08-05T17:06:12.611Z,21.24
2022-08-05T17:08:53.048Z,21.31
2022-08-05T17:11:23.903Z,21.19
2022-08-05T17:14:00.200Z,20.98
2022-08-05T17:16:36.615Z,20.82
2022-08-05T17:19:07.895Z,20.99
2022-08-05T17:21:37.321Z,21.03
2022-08-05T17:24:30.085Z,21.02
2022-08-05T17:26:55.856Z,21.03
2022-08-05T17:29:33.236Z,21.04
2022-08-05T17:32:00.744Z,20.97
2022-08-05T17:34:29.756Z,20.87
2022-08-05T17:36:56.787Z,20.61
2022-08-05T17:39:24.420Z,20.72
2022-08-05T17:42:20.337Z,20.67
2022-08-05T17:44:50.819Z,20.58
2022-08-05T17:47:22.205Z,20.50
2022-08-05T17:50:00.371Z,20.49
2022-08-05T17:52:31.521Z,20.42
2022-08-05T17:54:58.237Z,20.38
2022-08-05T17:57:24.728Z,20.43
2022-08-05T18:00:03.382Z,20.37
2022-08-05T18:02:31.522Z,20.34
2022-08-05T18:04:58.551Z,20.38
2022-08-05T18:07:25.178Z,20.41
2022-08-05T18:10:10.133Z,20.45
2022-08-05T18:12:37.448Z,20.47
2022-08-05T18:15:04.786Z,20.43
2022-08-05T18:18:01.076Z,20.37
2022-08-05T18:20:19.370Z,20.25
2022-08-05T18:22:57.403Z,20.32
2022-08-05T18:25:25.190Z,20.23
2022-08-05T18:27:59.247Z,20.23
2022-08-05T18:30:29.168Z,20.12
2022-08-05T18:33:00.193Z,19.95
2022-08-05T18:35:49.559Z,19.99
2022-08-05T18:38:16.482Z,19.93
2022-08-05T18:41:57.469Z,19.89
2022-08-05T18:43:37.935Z,19.80
2022-08-05T18:46:10.032Z,19.75
2022-08-05T18:48:41.701Z,19.64
2022-08-05T18:52:05.876Z,19.54
2022-08-05T18:54:13.973Z,19.44
2022-08-05T18:56:40.489Z,19.37
2022-08-05T18:59:44.254Z,19.29
2022-08-05T19:01:57.178Z,19.19
2022-08-05T19:04:25.241Z,19.09
2022-08-05T19:06:53.721Z,19.02
2022-08-05T19:09:21.068Z,18.97
2022-08-05T19:12:00.986Z,18.87
2022-08-05T19:14:53.502Z,18.84
2022-08-05T19:17:16.187Z,18.77
2022-08-05T19:19:46.779Z,18.71
2022-08-05T19:22:21.574Z,18.65
2022-08-05T19:25:00.170Z,18.56
2022-08-05T19:27:30.233Z,18.51
2022-08-05T19:29:57.619Z,18.46
2022-08-05T19:32:26.208Z,18.39
2022-08-05T19:34:55.175Z,18.29
2022-08-05T19:37:35.158Z,18.20
2022-08-05T19:40:10.547Z,18.03
2022-08-05T19:42:38.805Z,18.04
2022-08-05T19:45:07.139Z,17.94
2022-08-05T19:47:37.683Z,17.89
2022-08-05T19:50:06.022Z,17.90
2022-08-05T19:52:34.303Z,17.83
2022-08-05T19:55:06.617Z,17.73
2022-08-05T19:57:47.658Z,17.71
2022-08-05T20:00:22.068Z,17.67
2022-08-05T20:02:48.411Z,17.61
2022-08-05T20:05:16.587Z,17.57
2022-08-05T20:07:55.021Z,17.49
2022-08-05T20:10:24.482Z,17.39
2022-08-05T20:12:51.658Z,17.30
2022-08-05T20:15:48.987Z,17.30
2022-08-05T20:18:10.413Z,17.22
2022-08-05T20:20:55.339Z,17.22
2022-08-05T20:23:23.498Z,17.17
2022-08-05T20:25:52.252Z,17.06
2022-08-05T20:28:20.043Z,16.97
2022-08-05T20:30:46.670Z,16.87
2022-08-05T20:33:15.904Z,16.80
2022-08-05T20:35:45.586Z,16.72
2022-08-05T20:38:20.005Z,16.66
2022-08-05T20:40:50.542Z,16.56
2022-08-05T20:43:17.463Z,16.56
2022-08-05T20:46:03.851Z,16.52
2022-08-05T20:48:30.177Z,16.47
2022-08-05T20:50:56.537Z,16.43
2022-08-05T20:53:36.429Z,16.23
2022-08-05T20:56:09.132Z,16.30
2022-08-05T20:58:36.082Z,16.29
2022-08-05T21:01:03.903Z,16.26
2022-08-05T21:03:34.301Z,16.18
2022-08-05T21:06:01.624Z,16.19
2022-08-05T21:08:41.455Z,16.15
2022-08-05T21:11:12.932Z,16.05
2022-08-05T21:13:59.253Z,16.04
2022-08-05T21:16:29.346Z,16.05
2022-08-05T21:19:00.078Z,16.01
2022-08-05T21:21:43.994Z,16.04
2022-08-05T21:24:15.330Z,16.05
2022-08-05T21:26:44.106Z,16.01
2022-08-05T21:29:16.913Z,16.00
2022-08-05T21:31:43.337Z,15.99
2022-08-05T21:34:10.509Z,15.95
2022-08-05T21:36:37.647Z,15.93
2022-08-05T21:39:04.151Z,15.86
2022-08-05T21:41:34.242Z,15.81
2022-08-05T21:44:04.264Z,15.85
2022-08-05T21:46:34.640Z,15.83
2022-08-05T21:49:01.736Z,15.76
2022-08-05T21:52:21.359Z,15.72
2022-08-05T21:54:14.409Z,15.57
2022-08-05T21:56:44.429Z,15.54
2022-08-05T21:59:23.984Z,15.50
2022-08-05T22:01:51.984Z,15.41
2022-08-05T22:04:21.129Z,15.34
2022-08-05T22:06:52.045Z,15.27
2022-08-05T22:09:21.037Z,15.24
2022-08-05T22:11:48.296Z,15.18
2022-08-05T22:14:35.161Z,15.14
2022-08-05T22:17:06.718Z,15.07
2022-08-05T22:20:00.466Z,15.04
2022-08-05T22:22:26.875Z,14.99
2022-08-05T22:25:20.897Z,14.89
2022-08-05T22:28:04.855Z,14.80
2022-08-05T22:30:38.413Z,14.69
2022-08-05T22:33:57.662Z,14.73
2022-08-05T22:36:08.848Z,14.69
2022-08-05T22:38:36.509Z,14.63
2022-08-05T22:41:09.743Z,14.56
2022-08-05T22:43:37.989Z,14.49
2022-08-05T22:46:12.076Z,14.39
2022-08-05T22:48:47.316Z,14.35
2022-08-05T22:51:16.070Z,14.40
2022-08-05T22:53:49.808Z,14.37
2022-08-05T22:56:16.872Z,14.33
2022-08-05T22:58:43.735Z,14.28
2022-08-05T23:01:10.390Z,14.22
2022-08-05T23:03:57.609Z,14.07
2022-08-05T23:06:23.204Z,14.16
2022-08-05T23:08:52.847Z,14.15
2022-08-05T23:11:19.190Z,14.12
2022-08-05T23:13:45.613Z,14.16
2022-08-05T23:16:26.107Z,14.13
2022-08-05T23:19:00.885Z,14.07
2022-08-05T23:21:43.085Z,14.06
2022-08-05T23:24:14.573Z,14.07
2022-08-05T23:26:41.686Z,14.08
2022-08-05T23:29:10.534Z,14.09
2022-08-05T23:31:42.193Z,13.92
2022-08-05T23:34:08.566Z,14.07
2022-08-05T23:36:40.235Z,14.04
2022-08-05T23:39:17.409Z,14.03
2022-08-05T23:41:50.418Z,14.02
2022-08-05T23:44:16.881Z,13.99
2022-08-05T23:46:43.551Z,13.95
2022-08-05T23:49:17.026Z,13.92
2022-08-05T23:52:07.260Z,13.89
2022-08-05T23:54:38.505Z,13.88
2022-08-05T23:57:06.752Z,13.85
